createdAt,value
2023-04-16T00:00:08.165Z,10.80
2023-04-16T00:02:48.718Z,11.15
2023-04-16T00:05:27.345Z,12.43
2023-04-16T00:08:04.999Z,14.23
2023-04-16T00:10:42.818Z,12.80
2023-04-16T00:13:20.805Z,13.00
2023-04-16T00:15:59.168Z,12.50
2023-04-16T00:18:38.487Z,12.95
2023-04-16T00:21:16.255Z,13.85
2023-04-16T00:23:53.881Z,15.82
2023-04-16T00:26:31.791Z,14.93
2023-04-16T00:29:09.679Z,17.20
2023-04-16T00:31:47.499Z,15.43
2023-04-16T00:34:25.371Z,19.65
2023-04-16T00:37:02.958Z,12.60
2023-04-16T00:39:40.831Z,14.00
2023-04-16T00:42:18.544Z,18.42
2023-04-16T00:44:56.049Z,13.50
2023-04-16T00:47:34.093Z,16.45
2023-04-16T00:50:12.306Z,11.93
2023-04-16T00:52:50.279Z,12.30
2023-04-16T00:55:28.017Z,13.63
2023-04-16T00:58:05.760Z,17.38
2023-04-16T01:00:43.257Z,14.95
2023-04-16T01:03:21.176Z,15.15
2023-04-16T01:05:59.150Z,17.63
2023-04-16T01:08:36.814Z,15.05
2023-04-16T01:11:15.686Z,16.00
2023-04-16T01:13:53.356Z,16.40
2023-04-16T01:16:32.686Z,15.13
2023-04-16T01:19:10.308Z,14.48
2023-04-16T01:21:47.956Z,20.27
2023-04-16T01:24:25.498Z,18.20
2023-04-16T01:27:02.989Z,17.92
2023-04-16T01:29:40.526Z,21.02
2023-04-16T01:32:18.336Z,15.80
2023-04-16T01:34:57.790Z,19.60
2023-04-16T01:37:35.399Z,14.82
2023-04-16T01:40:12.983Z,18.45
2023-04-16T01:42:51.655Z,15.40
2023-04-16T01:45:29.232Z,16.92
2023-04-16T01:48:07.166Z,22.00
2023-04-16T01:50:44.637Z,20.38
2023-04-16T01:53:22.026Z,17.88
2023-04-16T01:55:59.530Z,17.98
2023-04-16T01:58:37.190Z,18.67
2023-04-16T02:01:14.978Z,17.98
2023-04-16T02:03:53.530Z,16.67
2023-04-16T02:06:31.559Z,22.63
2023-04-16T02:09:09.700Z,19.38
2023-04-16T02:11:48.444Z,17.48
2023-04-16T02:14:26.177Z,21.23
2023-04-16T02:17:04.572Z,21.13
2023-04-16T02:19:50.925Z,22.50
2023-04-16T02:22:29.358Z,23.98
2023-04-16T02:25:07.150Z,26.77
2023-04-16T02:27:44.676Z,24.90
2023-04-16T02:30:36.617Z,27.60
2023-04-16T02:33:15.257Z,25.70
2023-04-16T02:36:03.385Z,31.38
2023-04-16T02:38:40.867Z,34.53
2023-04-16T02:41:18.771Z,34.17
2023-04-16T02:43:56.703Z,37.03
2023-04-16T02:46:34.133Z,34.38
2023-04-16T02:49:11.752Z,35.83
2023-04-16T02:51:49.302Z,37.63
2023-04-16T02:54:26.802Z,35.83
2023-04-16T02:57:05.993Z,30.70
2023-04-16T02:59:43.430Z,32.58
2023-04-16T03:02:22.289Z,37.47
2023-04-16T03:04:59.937Z,31.00
2023-04-16T03:07:39.220Z,37.28
2023-04-16T03:10:17.107Z,30.45
2023-04-16T03:12:54.698Z,34.90
2023-04-16T03:15:32.217Z,35.95
2023-04-16T03:18:09.723Z,34.05
2023-04-16T03:20:52.409Z,32.05
2023-04-16T03:23:30.708Z,36.20
2023-04-16T03:26:08.194Z,39.88
2023-04-16T03:28:45.706Z,34.42
2023-04-16T03:31:26.690Z,38.53
2023-04-16T03:34:05.507Z,38.53
2023-04-16T03:36:43.249Z,38.45
2023-04-16T03:39:20.934Z,37.92
2023-04-16T03:41:58.498Z,42.63
2023-04-16T03:44:36.167Z,41.17
2023-04-16T03:47:13.566Z,41.80
2023-04-16T03:49:51.248Z,38.35
2023-04-16T03:52:30.960Z,38.83
2023-04-16T03:55:08.864Z,47.33
2023-04-16T03:57:46.961Z,41.20
2023-04-16T04:00:26.769Z,55.75
2023-04-16T04:03:12.560Z,39.45
2023-04-16T04:05:50.482Z,45.88
2023-04-16T04:08:35.656Z,39.50
2023-04-16T04:11:14.994Z,42.78
2023-04-16T04:13:54.596Z,41.45
2023-04-16T04:16:32.882Z,46.60
2023-04-16T04:19:10.685Z,45.88
2023-04-16T04:21:48.436Z,47.58
2023-04-16T04:24:27.201Z,46.83
2023-04-16T04:27:04.888Z,40.63
2023-04-16T04:29:46.692Z,40.47
2023-04-16T04:32:24.395Z,41.25
2023-04-16T04:35:03.864Z,48.05
2023-04-16T04:37:41.731Z,47.40
2023-04-16T04:40:25.489Z,39.97
2023-04-16T04:43:03.923Z,41.92
2023-04-16T04:45:41.504Z,48.33
2023-04-16T04:48:19.442Z,48.35
2023-04-16T04:50:57.474Z,40.35
2023-04-16T04:53:47.115Z,46.00
2023-04-16T04:56:25.069Z,43.20
2023-04-16T04:59:02.959Z,41.50
2023-04-16T05:01:41.283Z,47.55
2023-04-16T05:04:21.857Z,44.95
2023-04-16T05:07:02.662Z,50.00
2023-04-16T05:09:40.262Z,45.53
2023-04-16T05:12:18.104Z,50.00
2023-04-16T05:14:55.703Z,45.25
2023-04-16T05:17:33.240Z,47.08
2023-04-16T05:20:11.385Z,50.08
2023-04-16T05:22:49.735Z,56.53
2023-04-16T05:25:27.173Z,44.58
2023-04-16T05:28:04.967Z,49.60
2023-04-16T05:30:43.591Z,54.38
2023-04-16T05:33:21.100Z,53.10
2023-04-16T05:35:58.557Z,52.47
2023-04-16T05:38:35.990Z,54.67
2023-04-16T05:41:13.419Z,53.42
2023-04-16T05:43:50.844Z,57.85
2023-04-16T05:46:28.241Z,55.70
2023-04-16T05:49:05.690Z,55.83
2023-04-16T05:52:16.040Z,45.03
2023-04-16T05:54:53.439Z,46.95
2023-04-16T05:57:30.933Z,41.58
2023-04-16T06:00:09.011Z,42.38
2023-04-16T06:02:52.565Z,42.92
2023-04-16T06:05:31.109Z,48.40
2023-04-16T06:08:08.608Z,50.22
2023-04-16T06:10:47.518Z,46.60
2023-04-16T06:13:25.195Z,41.65
2023-04-16T06:16:02.729Z,44.03
2023-04-16T06:18:40.173Z,42.80
2023-04-16T06:21:17.822Z,37.38
2023-04-16T06:23:56.190Z,42.72
2023-04-16T06:26:33.718Z,39.35
2023-04-16T06:29:11.920Z,38.00
2023-04-16T06:31:49.660Z,35.55
2023-04-16T06:34:28.485Z,37.40
2023-04-16T06:37:08.346Z,34.28
2023-04-16T06:39:47.382Z,34.25
2023-04-16T06:42:24.927Z,31.02
2023-04-16T06:45:02.441Z,32.42
2023-04-16T06:47:40.518Z,34.30
2023-04-16T06:50:18.030Z,30.08
2023-04-16T06:52:56.405Z,34.63
2023-04-16T06:55:33.825Z,32.00
2023-04-16T06:58:11.278Z,37.08
2023-04-16T07:00:48.833Z,35.30
2023-04-16T07:03:26.487Z,36.85
2023-04-16T07:06:04.164Z,34.50
2023-04-16T07:08:41.647Z,33.65
2023-04-16T07:11:19.483Z,33.20
2023-04-16T07:13:57.790Z,36.35
2023-04-16T07:16:37.656Z,35.47
2023-04-16T07:19:15.334Z,33.38
2023-04-16T07:21:52.770Z,32.72
2023-04-16T07:24:47.019Z,34.60
2023-04-16T07:27:25.233Z,34.05
2023-04-16T07:30:02.903Z,33.63
2023-04-16T07:32:40.387Z,32.65
2023-04-16T07:35:18.073Z,33.75
2023-04-16T07:37:55.710Z,33.65
2023-04-16T07:40:35.919Z,29.80
2023-04-16T07:43:15.401Z,33.88
2023-04-16T07:45:52.891Z,29.60
2023-04-16T07:48:30.356Z,31.55
2023-04-16T07:51:07.934Z,33.22
2023-04-16T07:53:48.005Z,35.03
2023-04-16T07:56:25.913Z,28.88
2023-04-16T07:59:18.380Z,30.73
2023-04-16T08:02:02.264Z,30.40
2023-04-16T08:04:41.311Z,31.85
2023-04-16T08:07:19.026Z,29.38
2023-04-16T08:09:56.509Z,33.25
2023-04-16T08:12:34.144Z,32.35
2023-04-16T08:15:11.924Z,30.00
2023-04-16T08:17:49.597Z,32.78
2023-04-16T08:20:27.286Z,31.48
2023-04-16T08:23:04.783Z,33.72
2023-04-16T08:25:42.439Z,29.30
2023-04-16T08:28:19.921Z,28.55
2023-04-16T08:31:00.281Z,33.08
2023-04-16T08:33:37.884Z,32.78
2023-04-16T08:36:15.411Z,30.52
2023-04-16T08:38:52.887Z,31.70
2023-04-16T08:41:34.308Z,33.22
2023-04-16T08:44:25.837Z,30.02
2023-04-16T08:47:07.912Z,31.40
2023-04-16T08:49:46.191Z,29.52
2023-04-16T08:52:26.089Z,27.77
2023-04-16T08:55:16.484Z,28.77
2023-04-16T08:57:58.349Z,29.10
2023-04-16T09:03:15.965Z,32.45
2023-04-16T09:05:57.601Z,30.00
2023-04-16T09:08:39.384Z,29.08
2023-04-16T09:13:57.162Z,32.83
2023-04-16T09:16:35.307Z,29.45
2023-04-16T09:19:14.215Z,30.15
2023-04-16T09:21:51.752Z,28.75
2023-04-16T09:24:33.090Z,29.25
2023-04-16T09:27:13.140Z,26.45
2023-04-16T09:29:50.812Z,26.92
2023-04-16T09:32:29.280Z,27.77
2023-04-16T09:35:07.027Z,29.77
2023-04-16T09:37:44.653Z,29.85
2023-04-16T09:40:27.185Z,31.10
2023-04-16T09:43:15.786Z,27.80
2023-04-16T09:45:55.303Z,27.33
2023-04-16T09:48:34.330Z,29.02
2023-04-16T09:51:11.757Z,29.55
2023-04-16T09:53:54.584Z,32.30
2023-04-16T09:56:32.229Z,28.85
2023-04-16T09:59:24.251Z,30.58
2023-04-16T10:02:14.993Z,26.85
2023-04-16T10:04:55.045Z,28.88
2023-04-16T10:07:37.213Z,29.73
2023-04-16T10:10:15.576Z,28.55
2023-04-16T10:12:57.886Z,29.67
2023-04-16T10:15:35.918Z,28.05
2023-04-16T10:18:15.099Z,27.35
2023-04-16T10:20:53.094Z,27.45
2023-04-16T10:23:30.688Z,25.40
2023-04-16T10:26:09.082Z,26.42
2023-04-16T10:28:46.965Z,24.35
2023-04-16T10:31:27.413Z,29.60
2023-04-16T10:34:07.022Z,24.75
2023-04-16T10:36:50.724Z,28.42
2023-04-16T10:39:32.991Z,29.80
2023-04-16T10:42:13.027Z,28.48
2023-04-16T10:44:50.786Z,32.05
2023-04-16T10:47:29.209Z,29.85
2023-04-16T10:50:18.183Z,30.63
2023-04-16T10:53:20.215Z,33.05
2023-04-16T10:56:04.555Z,29.73
2023-04-16T10:58:42.313Z,26.85
2023-04-16T11:01:31.686Z,29.45
2023-04-16T11:04:21.925Z,30.20
2023-04-16T11:07:14.796Z,32.80
2023-04-16T11:10:05.475Z,32.70
2023-04-16T11:12:47.237Z,30.48
2023-04-16T11:18:07.207Z,28.88
2023-04-16T11:20:44.934Z,30.77
2023-04-16T11:23:22.373Z,31.63
2023-04-16T11:26:00.941Z,28.55
2023-04-16T11:28:39.446Z,30.23
2023-04-16T11:31:17.005Z,30.10
2023-04-16T11:33:56.692Z,29.88
2023-04-16T11:36:51.663Z,28.95
2023-04-16T11:39:29.150Z,31.95
2023-04-16T11:42:06.646Z,29.25
2023-04-16T11:44:44.210Z,30.58
2023-04-16T11:47:27.405Z,29.23
2023-04-16T11:50:18.077Z,32.72
2023-04-16T11:53:03.252Z,32.08
2023-04-16T11:55:45.572Z,31.02
2023-04-16T11:58:23.542Z,29.02
2023-04-16T12:01:02.216Z,30.70
2023-04-16T12:03:46.127Z,29.13
2023-04-16T12:06:27.252Z,31.20
2023-04-16T12:09:27.116Z,27.63
2023-04-16T12:12:05.461Z,27.80
2023-04-16T12:14:53.149Z,30.83
2023-04-16T12:17:35.668Z,29.40
2023-04-16T12:20:15.679Z,29.98
2023-04-16T12:22:55.450Z,29.52
2023-04-16T12:25:32.877Z,33.92
2023-04-16T12:28:10.622Z,30.02
2023-04-16T12:30:51.350Z,27.33
2023-04-16T12:33:29.513Z,28.30
2023-04-16T12:36:20.033Z,29.33
2023-04-16T12:38:57.508Z,31.92
2023-04-16T12:41:38.184Z,29.48
2023-04-16T12:44:18.622Z,29.58
2023-04-16T12:46:56.443Z,29.83
2023-04-16T12:49:33.982Z,30.60
2023-04-16T12:52:11.615Z,29.92
2023-04-16T12:54:49.203Z,26.88
2023-04-16T12:57:28.752Z,28.02
2023-04-16T13:00:08.443Z,23.95
2023-04-16T13:02:46.278Z,23.75
2023-04-16T13:05:23.970Z,25.60
2023-04-16T13:08:01.546Z,23.55
2023-04-16T13:10:38.995Z,23.90
2023-04-16T13:13:16.502Z,22.42
2023-04-16T13:15:53.986Z,23.60
2023-04-16T13:18:31.608Z,22.20
2023-04-16T13:21:09.171Z,24.00
2023-04-16T13:23:46.754Z,22.95
2023-04-16T13:26:24.187Z,22.27
2023-04-16T13:29:01.814Z,23.17
2023-04-16T13:31:39.299Z,24.38
2023-04-16T13:34:16.893Z,25.23
2023-04-16T13:36:54.380Z,19.38
2023-04-16T13:39:31.934Z,22.08
2023-04-16T13:42:09.371Z,21.88
2023-04-16T13:44:48.939Z,23.85
2023-04-16T13:47:29.795Z,21.67
2023-04-16T13:50:10.803Z,22.33
2023-04-16T13:52:48.208Z,23.67
2023-04-16T13:55:25.881Z,26.45
2023-04-16T13:58:03.576Z,24.83
2023-04-16T14:00:42.924Z,23.60
2023-04-16T14:03:20.580Z,25.65
2023-04-16T14:05:58.050Z,22.65
2023-04-16T14:08:35.605Z,24.88
2023-04-16T14:11:13.129Z,20.00
2023-04-16T14:13:53.178Z,23.80
2023-04-16T14:16:31.003Z,24.70
2023-04-16T14:19:09.192Z,24.42
2023-04-16T14:21:47.115Z,22.65
2023-04-16T14:24:24.594Z,23.92
2023-04-16T14:27:02.494Z,20.85
2023-04-16T14:29:39.970Z,24.42
2023-04-16T14:32:17.443Z,24.17
2023-04-16T14:34:54.977Z,20.48
2023-04-16T14:37:32.596Z,20.70
2023-04-16T14:40:10.967Z,22.23
2023-04-16T14:42:48.424Z,19.98
2023-04-16T14:45:28.894Z,22.80
2023-04-16T14:48:06.768Z,22.02
2023-04-16T14:50:44.771Z,19.00
2023-04-16T14:53:23.684Z,23.92
2023-04-16T14:56:01.650Z,20.38
2023-04-16T14:58:39.812Z,20.20
2023-04-16T15:01:17.434Z,20.30
2023-04-16T15:03:56.615Z,23.73
2023-04-16T15:06:35.982Z,22.50
2023-04-16T15:09:13.644Z,24.98
2023-04-16T15:11:51.081Z,23.52
2023-04-16T15:14:28.554Z,22.13
2023-04-16T15:17:06.107Z,22.20
2023-04-16T15:19:43.733Z,25.83
2023-04-16T15:22:21.194Z,22.95
2023-04-16T15:24:58.603Z,22.50
2023-04-16T15:27:42.714Z,25.30
2023-04-16T15:30:21.041Z,25.13
2023-04-16T15:32:58.556Z,26.05
2023-04-16T15:35:36.645Z,25.85
2023-04-16T15:38:14.124Z,23.50
2023-04-16T15:40:51.842Z,28.55
2023-04-16T15:43:29.915Z,24.60
2023-04-16T15:46:08.750Z,24.10
2023-04-16T15:48:46.541Z,26.77
2023-04-16T15:51:29.308Z,26.65
2023-04-16T15:54:11.360Z,25.67
2023-04-16T15:56:49.080Z,27.85
2023-04-16T15:59:27.019Z,25.90
2023-04-16T16:02:04.526Z,24.73
2023-04-16T16:04:45.914Z,23.63
2023-04-16T16:07:25.165Z,26.23
2023-04-16T16:10:03.075Z,25.25
2023-04-16T16:12:41.488Z,26.30
2023-04-16T16:15:19.131Z,23.60
2023-04-16T16:17:57.974Z,23.70
2023-04-16T16:20:36.656Z,24.38
2023-04-16T16:23:14.174Z,33.00
2023-04-16T16:25:52.349Z,24.83
2023-04-16T16:28:29.836Z,29.02
2023-04-16T16:31:07.534Z,27.00
2023-04-16T16:33:47.326Z,24.55
2023-04-16T16:36:24.807Z,23.80
2023-04-16T16:39:03.950Z,21.45
2023-04-16T16:41:42.125Z,24.90
2023-04-16T16:44:20.650Z,26.10
2023-04-16T16:46:58.747Z,23.08
2023-04-16T16:49:36.323Z,26.23
2023-04-16T16:52:13.837Z,23.60
2023-04-16T16:54:54.405Z,25.63
2023-04-16T16:57:31.837Z,24.60
2023-04-16T17:00:16.178Z,23.55
2023-04-16T17:02:53.928Z,21.30
2023-04-16T17:05:31.524Z,21.10
2023-04-16T17:08:09.032Z,21.15
2023-04-16T17:10:46.473Z,22.65
2023-04-16T17:13:25.299Z,20.90
2023-04-16T17:16:02.950Z,23.50
2023-04-16T17:18:40.815Z,24.02
2023-04-16T17:21:18.311Z,27.02
2023-04-16T17:23:59.307Z,23.45
2023-04-16T17:26:37.023Z,20.60
2023-04-16T17:29:17.110Z,24.38
2023-04-16T17:31:54.785Z,22.05
2023-04-16T17:34:32.463Z,20.30
2023-04-16T17:37:10.409Z,24.63
2023-04-16T17:39:48.995Z,22.05
2023-04-16T17:42:29.080Z,21.88
2023-04-16T17:45:07.635Z,21.73
2023-04-16T17:47:45.608Z,24.23
2023-04-16T17:50:23.301Z,25.23
2023-04-16T17:53:06.744Z,25.80
2023-04-16T17:55:56.519Z,26.33
2023-04-16T17:58:36.364Z,22.67
2023-04-16T18:01:29.363Z,23.70
2023-04-16T18:04:07.707Z,25.55
2023-04-16T18:06:45.335Z,24.10
2023-04-16T18:09:25.871Z,27.10
2023-04-16T18:12:06.420Z,25.25
2023-04-16T18:14:44.736Z,26.73
2023-04-16T18:17:23.128Z,26.15
2023-04-16T18:20:00.572Z,25.83
2023-04-16T18:22:37.952Z,24.02
2023-04-16T18:25:16.265Z,27.50
2023-04-16T18:27:54.005Z,24.25
2023-04-16T18:30:31.715Z,27.17
2023-04-16T18:33:30.662Z,22.50
2023-04-16T18:36:11.726Z,27.67
2023-04-16T18:39:00.316Z,25.27
2023-04-16T18:41:40.094Z,25.77
2023-04-16T18:44:20.880Z,26.27
2023-04-16T18:46:58.443Z,24.60
2023-04-16T18:49:36.197Z,29.90
2023-04-16T18:52:18.954Z,24.92
2023-04-16T18:54:56.418Z,28.98
2023-04-16T18:57:34.054Z,29.63
2023-04-16T19:00:14.149Z,28.55
2023-04-16T19:02:52.071Z,28.05
2023-04-16T19:05:29.721Z,28.73
2023-04-16T19:08:33.655Z,27.20
2023-04-16T19:11:11.124Z,32.22
2023-04-16T19:13:48.712Z,30.55
2023-04-16T19:16:26.193Z,33.45
2023-04-16T19:19:03.975Z,30.95
2023-04-16T19:21:41.439Z,25.48
2023-04-16T19:24:27.034Z,30.15
2023-04-16T19:27:04.508Z,29.23
2023-04-16T19:29:43.540Z,32.92
2023-04-16T19:32:24.312Z,28.92
2023-04-16T19:35:02.684Z,32.25
2023-04-16T19:37:40.287Z,31.50
2023-04-16T19:40:18.002Z,29.30
2023-04-16T19:42:55.517Z,28.80
2023-04-16T19:45:33.060Z,31.20
2023-04-16T19:48:11.568Z,32.92
2023-04-16T19:50:52.327Z,36.45
2023-04-16T19:53:29.860Z,32.63
2023-04-16T19:56:07.649Z,34.67
2023-04-16T19:58:47.974Z,32.88
2023-04-16T20:01:25.931Z,31.20
2023-04-16T20:04:03.498Z,39.05
2023-04-16T20:06:41.035Z,35.92
2023-04-16T20:09:20.139Z,33.67
2023-04-16T20:11:58.052Z,36.65
2023-04-16T20:14:35.520Z,37.10
2023-04-16T20:17:19.589Z,35.50
2023-04-16T20:20:00.811Z,34.78
2023-04-16T20:22:39.969Z,36.95
2023-04-16T20:25:19.250Z,35.45
2023-04-16T20:27:56.867Z,39.30
2023-04-16T20:30:38.874Z,35.83
2023-04-16T20:33:16.739Z,37.72
2023-04-16T20:35:54.504Z,42.53
2023-04-16T20:38:34.145Z,40.50
2023-04-16T20:41:20.175Z,38.70
2023-04-16T20:44:25.430Z,37.83
2023-04-16T20:47:09.701Z,37.72
2023-04-16T20:49:54.690Z,40.25
2023-04-16T20:52:32.580Z,37.40
2023-04-16T20:55:19.424Z,37.90
2023-04-16T20:57:56.881Z,39.80
2023-04-16T21:01:53.362Z,38.60
2023-04-16T21:04:58.413Z,39.63
2023-04-16T21:07:38.767Z,43.30
2023-04-16T21:10:20.033Z,36.70
2023-04-16T21:12:57.579Z,37.30
2023-04-16T21:15:35.239Z,40.90
2023-04-16T21:18:13.370Z,35.80
2023-04-16T21:20:53.762Z,37.22
2023-04-16T21:23:31.463Z,38.13
2023-04-16T21:26:09.014Z,37.67
2023-04-16T21:28:46.577Z,37.40
2023-04-16T21:31:24.218Z,35.10
2023-04-16T21:34:11.104Z,37.25
2023-04-16T21:36:48.613Z,41.25
2023-04-16T21:39:30.751Z,41.22
2023-04-16T21:42:08.179Z,36.72
2023-04-16T21:44:46.516Z,38.47
2023-04-16T21:47:24.076Z,42.75
2023-04-16T21:50:01.535Z,38.40
2023-04-16T21:52:40.303Z,40.60
2023-04-16T21:55:18.258Z,46.40
2023-04-16T21:57:55.714Z,38.50
2023-04-16T22:00:37.148Z,39.17
2023-04-16T22:03:17.344Z,38.88
2023-04-16T22:06:02.392Z,38.85
2023-04-16T22:08:39.866Z,38.13
2023-04-16T22:11:17.343Z,40.10
2023-04-16T22:13:57.827Z,42.05
2023-04-16T22:16:35.897Z,38.85
2023-04-16T22:19:14.104Z,32.60
2023-04-16T22:21:51.561Z,36.97
2023-04-16T22:24:29.024Z,37.55
2023-04-16T22:27:06.625Z,39.53
2023-04-16T22:29:44.216Z,32.30
2023-04-16T22:32:21.993Z,38.42
2023-04-16T22:34:59.555Z,39.13
2023-04-16T22:37:36.998Z,38.72
2023-04-16T22:40:14.872Z,40.47
2023-04-16T22:42:52.412Z,38.85
2023-04-16T22:45:29.903Z,37.50
2023-04-16T22:48:07.816Z,40.75
2023-04-16T22:50:48.552Z,40.40
2023-04-16T22:53:26.114Z,38.78
2023-04-16T22:56:04.124Z,40.58
2023-04-16T22:58:41.531Z,38.92
2023-04-16T23:01:19.047Z,36.85
2023-04-16T23:03:56.744Z,38.65
2023-04-16T23:06:34.330Z,37.50
2023-04-16T23:09:11.989Z,41.03
2023-04-16T23:11:49.686Z,38.22
2023-04-16T23:14:27.129Z,39.22
2023-04-16T23:17:04.590Z,37.85
2023-04-16T23:19:42.056Z,39.83
2023-04-16T23:22:21.650Z,41.22
2023-04-16T23:24:59.109Z,38.42
2023-04-16T23:27:37.289Z,37.45
2023-04-16T23:30:15.063Z,37.85
2023-04-16T23:32:52.610Z,39.53
2023-04-16T23:35:30.369Z,36.83
2023-04-16T23:38:07.863Z,39.88
2023-04-16T23:40:45.354Z,36.75
2023-04-16T23:43:22.823Z,39.70
2023-04-16T23:46:00.847Z,40.00
2023-04-16T23:48:38.281Z,39.80
2023-04-16T23:51:15.814Z,40.83
2023-04-16T23:53:53.231Z,42.58
2023-04-16T23:56:30.841Z,42.28
2023-04-16T23:59:11.159Z,42.70
